Time;durP1;ratioP1;P1;durP2;ratioP2;P2;SDS_P1;SDS_P2;PMS_P1;PMS_P2;Temp;Humidity;BMP_temperature;BMP_pressure;BME280_temperature;BME280_humidity;BME280_pressure;Samples;Min_cycle;Max_cycle;Signal;HPM_P1;HPM_P2
2022/07/30 00:02:08;;;;;;;10.43;6.88;;;15.10;99.90;;;;;;5042085;28;20048;-63
2022/07/30 00:04:34;;;;;;;11.05;7.78;;;15.00;99.90;;;;;;5020214;28;20465;-62
2022/07/30 00:07:00;;;;;;;10.13;7.18;;;15.10;99.90;;;;;;5021905;28;20397;-62
2022/07/30 00:09:26;;;;;;;11.82;7.93;;;15.10;99.90;;;;;;5045174;28;20048;-62
2022/07/30 00:11:52;;;;;;;11.32;7.63;;;15.10;99.90;;;;;;5043103;28;20481;-62
2022/07/30 00:14:18;;;;;;;10.05;7.25;;;15.00;99.90;;;;;;5039330;28;20037;-62
2022/07/30 00:16:43;;;;;;;11.95;8.02;;;15.00;99.90;;;;;;5035120;28;20405;-62
2022/07/30 00:19:10;;;;;;;8.85;7.32;;;15.00;99.90;;;;;;5028675;28;20054;-62
2022/07/30 00:21:35;;;;;;;13.18;7.50;;;15.10;99.90;;;;;;5042320;28;20057;-63
2022/07/30 00:24:01;;;;;;;8.90;7.60;;;15.10;99.90;;;;;;5039034;28;20592;-62
2022/07/30 00:26:27;;;;;;;13.25;7.97;;;15.00;99.90;;;;;;5031722;28;20045;-62
2022/07/30 00:28:52;;;;;;;10.05;7.13;;;15.00;99.90;;;;;;5026744;28;20567;-62
2022/07/30 00:31:18;;;;;;;12.05;8.10;;;15.00;99.90;;;;;;5032388;28;20052;-62
2022/07/30 00:33:43;;;;;;;12.30;8.50;;;14.90;99.90;;;;;;5050082;28;20048;-62
2022/07/30 00:36:09;;;;;;;11.45;8.57;;;14.90;99.90;;;;;;5042340;28;20045;-63
2022/07/30 00:38:35;;;;;;;12.57;7.95;;;14.90;99.90;;;;;;5014368;28;20535;-62
2022/07/30 00:41:00;;;;;;;10.00;7.95;;;14.90;99.90;;;;;;5047260;28;20096;-62
2022/07/30 00:43:26;;;;;;;11.82;7.88;;;14.90;99.90;;;;;;5038003;28;20133;-62
2022/07/30 00:45:52;;;;;;;11.20;8.23;;;14.90;99.90;;;;;;5044137;28;20045;-62
2022/07/30 00:48:17;;;;;;;11.32;7.97;;;14.90;99.90;;;;;;5034023;28;20045;-62
2022/07/30 00:50:43;;;;;;;14.88;9.20;;;14.90;99.90;;;;;;5050437;28;20476;-62
2022/07/30 00:53:08;;;;;;;12.10;9.38;;;14.90;99.90;;;;;;5040427;28;20049;-62
2022/07/30 00:55:35;;;;;;;12.05;8.80;;;14.80;99.90;;;;;;5030076;28;20045;-62
2022/07/30 00:58:01;;;;;;;10.85;8.65;;;14.70;99.90;;;;;;5032693;28;20510;-62
2022/07/30 01:00:27;;;;;;;13.10;8.85;;;14.70;99.90;;;;;;5049951;28;20461;-62
2022/07/30 01:02:52;;;;;;;12.30;7.63;;;14.70;99.90;;;;;;5042074;28;20041;-62
2022/07/30 01:05:18;;;;;;;8.85;7.28;;;14.60;99.90;;;;;;5043054;28;20488;-62
2022/07/30 01:07:44;;;;;;;13.30;9.48;;;14.60;99.90;;;;;;5013965;28;20048;-62
2022/07/30 01:10:13;;;;;;;14.32;9.95;;;14.60;99.90;;;;;;5028936;28;20499;-62
2022/07/30 01:12:39;;;;;;;11.73;8.30;;;14.60;99.90;;;;;;5035304;28;20408;-62
2022/07/30 01:15:08;;;;;;;11.00;8.15;;;14.60;99.90;;;;;;5039055;28;20048;-62
2022/07/30 01:17:34;;;;;;;14.43;9.00;;;14.60;99.90;;;;;;5012162;28;20077;-62
2022/07/30 01:20:25;;;;;;;15.25;10.07;;;14.60;99.90;;;;;;5028508;28;20065;-62
2022/07/30 01:23:03;;;;;;;13.80;9.70;;;14.50;99.90;;;;;;5032023;28;20037;-62
2022/07/30 01:26:00;;;;;;;10.85;8.73;;;14.40;99.90;;;;;;5048216;28;20072;-62
2022/07/30 01:28:31;;;;;;;9.90;8.00;;;14.30;99.90;;;;;;5033400;28;20045;-62
2022/07/30 01:30:58;;;;;;;7.93;6.30;;;14.20;99.90;;;;;;5049657;28;20949;-62
2022/07/30 01:33:26;;;;;;;8.10;6.70;;;14.00;99.90;;;;;;5049171;28;20049;-62
2022/07/30 01:35:53;;;;;;;9.48;6.45;;;14.00;99.90;;;;;;5049711;28;20048;-62
2022/07/30 01:38:21;;;;;;;8.50;6.75;;;14.00;99.90;;;;;;5033875;28;20613;-62
2022/07/30 01:40:50;;;;;;;8.20;6.70;;;13.80;99.90;;;;;;5050078;28;20063;-61
2022/07/30 01:43:17;;;;;;;9.65;6.97;;;13.80;99.90;;;;;;5039976;28;20041;-62
2022/07/30 01:45:45;;;;;;;7.85;6.90;;;13.80;99.90;;;;;;5033162;28;20045;-62
2022/07/30 01:48:13;;;;;;;13.32;8.68;;;13.80;99.90;;;;;;5012997;28;20515;-62
2022/07/30 01:50:43;;;;;;;10.15;8.35;;;13.80;99.90;;;;;;5033680;28;20045;-62
2022/07/30 01:53:10;;;;;;;11.35;8.68;;;13.60;99.90;;;;;;5051197;28;20075;-62
2022/07/30 01:55:39;;;;;;;10.77;7.53;;;13.80;99.90;;;;;;5039399;28;20045;-62
2022/07/30 01:58:06;;;;;;;11.43;8.43;;;13.80;99.90;;;;;;5016921;28;20056;-62
2022/07/30 02:00:36;;;;;;;13.55;8.50;;;13.80;99.90;;;;;;5048854;28;20057;-62
2022/07/30 02:03:03;;;;;;;11.00;8.50;;;13.80;99.90;;;;;;5044464;28;20041;-62
2022/07/30 02:05:33;;;;;;;12.52;8.90;;;13.80;99.90;;;;;;5049407;28;20060;-62
2022/07/30 02:08:09;;;;;;;14.20;10.50;;;13.80;99.90;;;;;;5035657;28;20447;-62
2022/07/30 02:10:47;;;;;;;13.18;10.38;;;13.80;99.90;;;;;;5033571;28;20544;-62
2022/07/30 02:13:19;;;;;;;15.77;11.27;;;13.80;99.90;;;;;;5039022;28;20046;-62
2022/07/30 02:15:58;;;;;;;14.07;10.65;;;13.90;99.90;;;;;;5042292;28;20524;-62
2022/07/30 02:18:47;;;;;;;17.92;11.95;;;13.90;99.90;;;;;;5016921;28;20049;-62
2022/07/30 02:21:16;;;;;;;15.27;11.98;;;13.90;99.90;;;;;;5033260;28;20555;-62
2022/07/30 02:23:45;;;;;;;15.65;12.00;;;13.80;99.90;;;;;;5045522;28;20033;-62
2022/07/30 02:26:18;;;;;;;15.18;10.65;;;13.80;99.90;;;;;;5025596;28;20060;-62
2022/07/30 02:28:47;;;;;;;14.30;10.05;;;13.80;99.90;;;;;;5037993;28;20562;-62
2022/07/30 02:31:16;;;;;;;10.95;9.45;;;13.80;99.90;;;;;;5032908;28;20042;-62
2022/07/30 02:33:42;;;;;;;12.15;9.43;;;13.80;99.90;;;;;;5040269;28;20048;-62
2022/07/30 02:36:09;;;;;;;12.65;9.55;;;13.70;99.90;;;;;;5030466;28;20395;-63
2022/07/30 02:38:38;;;;;;;10.70;8.75;;;13.80;99.90;;;;;;5023601;28;20053;-62
2022/07/30 02:41:06;;;;;;;11.57;9.55;;;13.80;99.90;;;;;;5036208;28;20052;-62
2022/07/30 02:43:33;;;;;;;13.18;10.23;;;13.80;99.90;;;;;;5041361;28;20049;-62
2022/07/30 02:46:00;;;;;;;12.60;10.32;;;13.70;99.90;;;;;;5045763;28;20057;-62
2022/07/30 02:48:27;;;;;;;13.60;10.80;;;13.60;99.90;;;;;;5034950;28;20041;-62
2022/07/30 02:50:56;;;;;;;18.48;13.05;;;13.60;99.90;;;;;;5051458;28;20120;-62
2022/07/30 02:53:23;;;;;;;19.92;13.75;;;13.70;99.90;;;;;;5039526;28;20143;-62
2022/07/30 02:55:52;;;;;;;21.63;15.05;;;13.60;99.90;;;;;;5038002;28;20621;-62
2022/07/30 02:58:21;;;;;;;17.92;13.90;;;13.70;99.90;;;;;;5025989;28;20049;-62
2022/07/30 03:00:49;;;;;;;19.70;14.70;;;13.80;99.90;;;;;;5049832;28;20434;-62
2022/07/30 03:03:16;;;;;;;22.83;15.43;;;13.80;99.90;;;;;;5041092;28;20037;-62
2022/07/30 03:05:43;;;;;;;18.42;15.07;;;13.80;99.90;;;;;;5048790;28;20164;-62
2022/07/30 03:08:10;;;;;;;21.00;15.23;;;13.80;99.90;;;;;;5034502;28;20602;-62
2022/07/30 03:10:36;;;;;;;21.00;16.08;;;13.90;99.90;;;;;;5051427;28;20122;-62
2022/07/30 03:13:05;;;;;;;16.65;14.63;;;13.90;99.90;;;;;;5038381;28;20641;-62
2022/07/30 03:15:34;;;;;;;21.88;14.95;;;13.90;99.90;;;;;;5049018;28;20056;-62
2022/07/30 03:18:01;;;;;;;19.20;14.18;;;13.90;99.90;;;;;;5028152;28;20045;-62
2022/07/30 03:20:30;;;;;;;20.33;13.57;;;13.90;99.90;;;;;;5045512;28;20543;-62
2022/07/30 03:22:58;;;;;;;16.20;12.32;;;13.80;99.90;;;;;;5040128;28;20080;-62
2022/07/30 03:25:26;;;;;;;16.70;12.95;;;13.70;99.90;;;;;;5031812;28;20068;-62
2022/07/30 03:27:54;;;;;;;15.25;11.80;;;13.70;99.90;;;;;;5029617;28;20041;-62
2022/07/30 03:30:22;;;;;;;20.20;12.60;;;13.60;99.90;;;;;;5050417;28;20064;-62
2022/07/30 03:32:48;;;;;;;16.27;12.57;;;13.60;99.90;;;;;;5050590;28;20049;-62
2022/07/30 03:35:15;;;;;;;15.27;11.65;;;13.60;99.90;;;;;;5052095;28;20049;-62
2022/07/30 03:37:41;;;;;;;14.05;10.15;;;13.50;99.90;;;;;;5051776;28;20373;-62
2022/07/30 03:40:08;;;;;;;12.88;10.50;;;13.30;99.90;;;;;;5050093;28;20148;-62
2022/07/30 03:42:35;;;;;;;14.40;10.93;;;13.30;99.90;;;;;;5043185;28;20048;-62
2022/07/30 03:45:04;;;;;;;16.70;11.43;;;13.30;99.90;;;;;;5037507;28;20052;-62
2022/07/30 03:47:32;;;;;;;14.45;10.70;;;13.30;99.90;;;;;;5019500;28;20408;-62
2022/07/30 03:49:59;;;;;;;14.35;11.73;;;13.30;99.90;;;;;;5030192;28;20045;-62
2022/07/30 03:52:27;;;;;;;13.02;11.27;;;13.30;99.90;;;;;;5042360;28;20514;-62
2022/07/30 03:54:53;;;;;;;15.00;11.60;;;13.20;99.90;;;;;;5051480;28;20044;-62
2022/07/30 03:57:19;;;;;;;18.75;13.20;;;13.20;99.90;;;;;;5031140;28;20083;-62
2022/07/30 03:59:45;;;;;;;13.98;11.32;;;13.10;99.90;;;;;;5031457;28;20532;-62
2022/07/30 04:02:12;;;;;;;13.98;11.57;;;13.20;99.90;;;;;;5044236;28;20422;-62
2022/07/30 04:04:42;;;;;;;16.50;12.25;;;13.20;99.90;;;;;;5031353;28;20042;-62
2022/07/30 04:07:08;;;;;;;14.90;11.85;;;13.20;99.90;;;;;;5014899;28;20049;-62
2022/07/30 04:09:34;;;;;;;16.00;11.95;;;13.20;99.90;;;;;;5030643;28;20534;-62
2022/07/30 04:12:00;;;;;;;18.20;12.45;;;13.10;99.90;;;;;;5036682;28;20045;-62
2022/07/30 04:14:26;;;;;;;16.42;12.95;;;13.10;99.90;;;;;;5032771;28;20049;-62
2022/07/30 04:17:02;;;;;;;14.15;11.38;;;13.10;99.90;;;;;;5020770;28;20091;-62
2022/07/30 04:19:37;;;;;;;11.57;9.45;;;13.10;99.90;;;;;;5041685;28;20135;-62
2022/07/30 04:22:06;;;;;;;9.75;8.07;;;13.00;99.90;;;;;;5048350;28;20482;-62
2022/07/30 04:24:33;;;;;;;8.93;8.02;;;12.90;99.90;;;;;;5042519;28;20552;-62
2022/07/30 04:27:00;;;;;;;8.85;7.88;;;12.80;99.90;;;;;;5028113;28;20042;-62
2022/07/30 04:29:27;;;;;;;15.73;11.93;;;12.80;99.90;;;;;;5044204;28;20045;-62
2022/07/30 04:31:53;;;;;;;17.45;13.88;;;12.90;99.90;;;;;;5050336;28;20402;-62
2022/07/30 04:34:19;;;;;;;11.07;8.98;;;13.00;99.90;;;;;;5049997;28;20071;-62
2022/07/30 04:36:45;;;;;;;7.70;6.72;;;12.90;99.90;;;;;;5033536;28;20503;-62
2022/07/30 04:39:11;;;;;;;6.03;4.82;;;12.80;99.90;;;;;;5048722;28;20053;-62
2022/07/30 04:41:38;;;;;;;7.82;4.68;;;12.70;99.90;;;;;;5044776;28;20462;-62
2022/07/30 04:44:04;;;;;;;8.65;5.47;;;12.50;99.90;;;;;;5032879;28;20076;-62
2022/07/30 04:46:30;;;;;;;5.97;4.95;;;12.70;99.90;;;;;;5035775;28;20132;-62
2022/07/30 04:48:56;;;;;;;6.13;4.88;;;12.60;99.90;;;;;;5048210;28;20226;-62
2022/07/30 04:51:30;;;;;;;7.28;5.30;;;12.60;99.90;;;;;;5050651;28;20510;-62
2022/07/30 04:53:58;;;;;;;12.02;9.40;;;12.60;99.90;;;;;;5049534;28;20053;-62
2022/07/30 04:56:24;;;;;;;22.85;15.52;;;12.80;99.90;;;;;;5029028;28;20098;-62
2022/07/30 04:58:51;;;;;;;21.60;18.15;;;13.10;99.90;;;;;;5040459;28;20056;-62
2022/07/30 05:01:26;;;;;;;24.85;19.30;;;13.30;99.90;;;;;;5047457;28;20063;-62
2022/07/30 05:03:52;;;;;;;28.15;20.00;;;13.50;99.90;;;;;;5032440;28;20045;-62
2022/07/30 05:06:22;;;;;;;21.08;18.67;;;13.50;99.90;;;;;;5028742;28;20468;-62
2022/07/30 05:08:48;;;;;;;26.75;18.33;;;13.60;99.90;;;;;;5042420;28;20100;-62
2022/07/30 05:11:14;;;;;;;25.25;17.85;;;13.70;99.90;;;;;;5035008;28;20034;-62
2022/07/30 05:13:44;;;;;;;23.15;17.98;;;13.80;99.90;;;;;;5027630;28;20041;-62
2022/07/30 05:16:10;;;;;;;24.90;19.15;;;13.90;99.90;;;;;;5031707;28;20058;-63
2022/07/30 05:18:36;;;;;;;23.25;18.70;;;14.00;99.90;;;;;;5021151;28;20432;-62
2022/07/30 05:21:03;;;;;;;25.38;19.08;;;14.10;99.90;;;;;;5030277;28;20124;-62
2022/07/30 05:23:29;;;;;;;22.25;18.00;;;14.10;99.90;;;;;;5034293;28;20037;-62
2022/07/30 05:25:55;;;;;;;19.90;16.92;;;14.30;99.90;;;;;;5035825;28;20045;-62
2022/07/30 05:28:21;;;;;;;19.77;16.25;;;14.40;99.90;;;;;;5024665;28;20041;-62
2022/07/30 05:30:47;;;;;;;24.02;16.27;;;14.50;99.90;;;;;;5031922;28;20053;-62
2022/07/30 05:33:13;;;;;;;19.58;15.63;;;14.60;99.90;;;;;;5039669;28;20042;-62
2022/07/30 05:35:39;;;;;;;19.88;15.25;;;14.80;99.90;;;;;;5037609;28;20047;-61
2022/07/30 05:38:04;;;;;;;20.20;14.90;;;14.80;99.90;;;;;;5033285;28;20525;-61
2022/07/30 05:40:30;;;;;;;20.25;14.80;;;14.80;99.90;;;;;;5049452;28;20523;-61
2022/07/30 05:42:56;;;;;;;15.55;13.73;;;14.80;99.90;;;;;;5041190;28;20072;-62
2022/07/30 05:45:21;;;;;;;18.65;14.32;;;14.80;99.90;;;;;;5037932;28;20053;-62
2022/07/30 05:47:47;;;;;;;20.58;15.60;;;14.90;99.90;;;;;;5033691;28;20033;-62
2022/07/30 05:50:13;;;;;;;20.58;15.55;;;15.10;99.90;;;;;;5049454;28;20049;-62
2022/07/30 05:52:38;;;;;;;19.42;15.30;;;15.20;99.90;;;;;;5049086;28;20037;-62
2022/07/30 05:55:05;;;;;;;16.80;14.75;;;15.30;99.90;;;;;;5048035;28;20052;-62
2022/07/30 05:57:30;;;;;;;18.70;15.02;;;15.30;99.90;;;;;;5033219;28;20037;-62
2022/07/30 05:59:56;;;;;;;18.92;15.80;;;15.40;99.90;;;;;;5048445;28;20053;-62
2022/07/30 06:02:21;;;;;;;20.08;15.32;;;15.50;99.90;;;;;;5033027;28;20052;-62
2022/07/30 06:04:47;;;;;;;18.75;14.43;;;15.60;99.90;;;;;;5048617;28;20096;-62
2022/07/30 06:07:13;;;;;;;18.83;14.32;;;15.70;99.90;;;;;;5033273;28;20403;-63
2022/07/30 06:09:38;;;;;;;20.65;14.70;;;15.80;99.90;;;;;;5048480;28;20477;-62
2022/07/30 06:12:04;;;;;;;15.45;13.85;;;15.80;99.90;;;;;;5059139;28;20125;-61
2022/07/30 06:14:30;;;;;;;17.05;13.75;;;15.90;99.90;;;;;;5038229;28;20094;-62
2022/07/30 06:16:56;;;;;;;13.88;12.35;;;16.00;99.90;;;;;;5018968;28;20447;-62
2022/07/30 06:19:22;;;;;;;14.80;11.68;;;16.10;99.90;;;;;;5028484;28;20053;-62
2022/07/30 06:21:48;;;;;;;13.38;10.98;;;16.20;99.90;;;;;;5030943;28;20052;-62
2022/07/30 06:24:13;;;;;;;19.38;12.65;;;16.40;99.90;;;;;;5028613;28;20076;-62
2022/07/30 06:26:39;;;;;;;22.85;13.45;;;16.40;99.90;;;;;;5020221;28;20099;-62
2022/07/30 06:29:05;;;;;;;16.70;12.32;;;16.30;99.90;;;;;;5045554;28;20136;-62
2022/07/30 06:31:31;;;;;;;17.02;12.25;;;16.40;99.90;;;;;;5043882;28;20053;-62
2022/07/30 06:33:56;;;;;;;16.63;12.25;;;16.60;99.90;;;;;;5034996;28;20080;-62
2022/07/30 06:36:22;;;;;;;19.00;12.43;;;16.70;99.90;;;;;;5023504;28;20404;-63
2022/07/30 06:38:47;;;;;;;18.92;11.68;;;16.80;99.90;;;;;;5043822;28;20068;-62
2022/07/30 06:41:14;;;;;;;16.15;12.05;;;17.00;99.90;;;;;;5033180;28;20049;-62
2022/07/30 06:43:40;;;;;;;17.98;12.38;;;17.20;99.90;;;;;;5032492;28;20519;-61
2022/07/30 06:46:06;;;;;;;17.73;11.85;;;17.20;99.90;;;;;;5046314;28;20415;-63
2022/07/30 06:48:31;;;;;;;17.75;11.88;;;17.30;99.90;;;;;;5054891;28;20048;-62
2022/07/30 06:50:57;;;;;;;19.98;11.98;;;17.40;99.90;;;;;;5051372;28;20092;-62
2022/07/30 06:53:23;;;;;;;15.68;11.05;;;17.60;99.90;;;;;;5052083;28;20194;-61
2022/07/30 06:55:49;;;;;;;19.05;11.60;;;17.80;99.90;;;;;;5052657;28;20519;-62
2022/07/30 06:58:15;;;;;;;15.30;10.85;;;17.90;99.90;;;;;;5035790;28;20045;-62
2022/07/30 07:00:43;;;;;;;15.82;10.85;;;18.00;99.90;;;;;;5052363;28;20101;-62
2022/07/30 07:03:10;;;;;;;15.68;11.02;;;18.50;99.90;;;;;;5042136;28;20045;-63
2022/07/30 07:05:35;;;;;;;14.77;9.68;;;18.40;99.90;;;;;;5032475;28;20333;-62
2022/07/30 07:08:01;;;;;;;14.30;9.75;;;18.50;99.90;;;;;;5015031;28;20393;-62
2022/07/30 07:10:27;;;;;;;14.07;9.73;;;18.80;99.90;;;;;;5030833;28;20061;-62
2022/07/30 07:12:53;;;;;;;13.75;9.82;;;18.90;99.90;;;;;;5037341;28;20038;-62
2022/07/30 07:15:19;;;;;;;18.13;10.48;;;18.90;99.90;;;;;;5035576;28;20033;-62
2022/07/30 07:17:46;;;;;;;15.23;9.95;;;18.80;99.90;;;;;;5035770;28;20411;-62
2022/07/30 07:20:12;;;;;;;14.88;10.98;;;18.70;99.90;;;;;;5050757;28;20123;-62
2022/07/30 07:22:38;;;;;;;17.70;10.00;;;18.80;99.90;;;;;;5049480;28;20120;-62
2022/07/30 07:25:04;;;;;;;14.02;9.18;;;18.80;99.90;;;;;;5033429;28;20137;-61
2022/07/30 07:27:30;;;;;;;14.38;8.30;;;18.90;99.90;;;;;;5026386;28;20037;-62
2022/07/30 07:29:56;;;;;;;13.57;8.45;;;19.20;99.90;;;;;;5051589;28;20049;-63
2022/07/30 07:32:21;;;;;;;11.80;7.43;;;19.40;99.90;;;;;;5051303;28;20040;-62
2022/07/30 07:34:47;;;;;;;13.68;7.47;;;19.60;99.90;;;;;;5051526;28;20421;-62
2022/07/30 07:37:14;;;;;;;17.13;7.65;;;19.40;99.90;;;;;;5036521;28;20485;-63
2022/07/30 07:39:40;;;;;;;13.18;8.13;;;19.40;99.90;;;;;;5033382;28;20064;-62
2022/07/30 07:42:06;;;;;;;14.70;7.18;;;19.30;99.90;;;;;;5029443;28;20120;-62
2022/07/30 07:44:31;;;;;;;11.57;6.90;;;19.60;99.90;;;;;;5049709;28;20162;-63
2022/07/30 07:46:57;;;;;;;21.00;8.68;;;19.70;99.90;;;;;;5033251;28;20075;-63
2022/07/30 07:49:23;;;;;;;13.82;7.70;;;19.60;99.90;;;;;;5048896;28;20393;-62
2022/07/30 07:51:49;;;;;;;11.13;6.75;;;19.60;99.90;;;;;;5042134;28;20079;-62
2022/07/30 07:54:15;;;;;;;11.90;6.88;;;19.70;99.90;;;;;;5045431;28;20091;-63
2022/07/30 07:56:41;;;;;;;10.40;6.07;;;19.40;99.90;;;;;;5037516;28;20045;-62
2022/07/30 07:59:07;;;;;;;11.88;6.22;;;19.30;99.90;;;;;;5047498;28;20098;-62
2022/07/30 08:01:33;;;;;;;11.63;5.90;;;19.60;99.90;;;;;;5041335;28;20402;-62
2022/07/30 08:03:58;;;;;;;13.40;6.35;;;19.70;99.90;;;;;;5046296;28;20044;-62
2022/07/30 08:06:24;;;;;;;11.52;5.47;;;19.50;99.90;;;;;;5037179;28;20507;-63
2022/07/30 08:08:50;;;;;;;12.27;6.47;;;19.50;99.90;;;;;;5047264;28;20128;-62
2022/07/30 08:11:16;;;;;;;13.43;6.45;;;19.60;99.90;;;;;;5047284;28;20423;-62
2022/07/30 08:13:42;;;;;;;9.80;5.40;;;19.70;99.90;;;;;;5033473;28;20136;-62
2022/07/30 08:16:09;;;;;;;10.07;5.20;;;19.80;99.90;;;;;;5030670;28;20496;-64
2022/07/30 08:18:38;;;;;;;8.40;4.93;;;19.80;99.90;;;;;;5020853;28;20045;-62
2022/07/30 08:21:04;;;;;;;11.05;5.75;;;19.80;99.90;;;;;;5042635;28;20416;-62
2022/07/30 08:23:30;;;;;;;8.05;4.93;;;19.80;99.90;;;;;;5032756;28;20187;-62
2022/07/30 08:25:57;;;;;;;9.93;5.78;;;19.90;99.90;;;;;;5029847;28;20452;-62
2022/07/30 08:28:24;;;;;;;9.55;4.97;;;19.80;99.90;;;;;;5012994;28;20041;-62
2022/07/30 08:30:49;;;;;;;9.73;4.57;;;19.90;99.90;;;;;;5030821;28;20041;-62
2022/07/30 08:33:15;;;;;;;13.05;4.88;;;20.00;99.90;;;;;;5043166;28;20045;-62
2022/07/30 08:35:41;;;;;;;14.43;5.85;;;20.20;99.90;;;;;;5029220;28;20049;-63
2022/07/30 08:38:07;;;;;;;11.85;4.57;;;19.90;99.90;;;;;;5032821;28;20045;-62
2022/07/30 08:40:34;;;;;;;11.70;4.65;;;19.90;99.90;;;;;;5046265;28;20405;-62
2022/07/30 08:43:05;;;;;;;8.15;4.45;;;19.90;99.90;;;;;;5034504;28;20048;-62
2022/07/30 08:45:32;;;;;;;6.93;3.67;;;20.00;99.90;;;;;;5050275;28;20497;-62
2022/07/30 08:48:06;;;;;;;10.93;4.15;;;20.10;99.90;;;;;;5033646;28;20041;-62
2022/07/30 08:50:33;;;;;;;9.05;4.20;;;19.90;99.90;;;;;;5038187;28;20574;-62
2022/07/30 08:53:00;;;;;;;8.48;3.45;;;19.90;99.90;;;;;;5038012;28;20049;-63
2022/07/30 08:55:26;;;;;;;13.85;4.32;;;20.10;99.90;;;;;;5050170;28;20037;-62
2022/07/30 08:57:52;;;;;;;6.57;3.78;;;20.10;99.90;;;;;;5033785;28;20052;-62
2022/07/30 09:00:18;;;;;;;8.80;4.07;;;20.20;99.90;;;;;;5050179;28;20151;-62
2022/07/30 09:02:44;;;;;;;11.32;3.85;;;20.40;99.90;;;;;;5042100;28;20041;-62
2022/07/30 09:05:10;;;;;;;5.20;3.60;;;20.30;99.90;;;;;;5043346;28;20053;-63
2022/07/30 09:07:37;;;;;;;14.85;4.70;;;20.40;99.90;;;;;;5032801;28;20553;-61
2022/07/30 09:10:04;;;;;;;7.32;4.13;;;20.20;99.90;;;;;;5049714;28;20111;-62
2022/07/30 09:12:41;;;;;;;6.60;4.00;;;20.30;99.90;;;;;;5039088;28;20492;-62
2022/07/30 09:15:08;;;;;;;11.43;4.25;;;20.50;99.90;;;;;;5050275;28;20055;-62
2022/07/30 09:17:54;;;;;;;7.63;3.72;;;20.50;99.90;;;;;;5012918;28;20076;-61
2022/07/30 09:20:26;;;;;;;8.27;4.00;;;20.50;99.90;;;;;;5028377;28;20077;-62
2022/07/30 09:22:53;;;;;;;;;;;20.60;99.90;;;;;;5032852;28;20088;-62
2022/07/30 09:25:40;;;;;;;6.38;3.00;;;20.70;99.90;;;;;;5036845;28;20432;-62
2022/07/30 09:28:08;;;;;;;8.18;3.60;;;20.90;99.90;;;;;;5017214;28;20051;-63
2022/07/30 09:30:53;;;;;;;10.48;3.90;;;20.80;99.90;;;;;;5029967;28;20045;-63
2022/07/30 09:33:34;;;;;;;12.75;4.63;;;21.00;99.90;;;;;;5037332;28;20057;-62
2022/07/30 09:36:00;;;;;;;8.85;3.20;;;21.10;99.90;;;;;;5032454;28;20128;-63
2022/07/30 09:38:27;;;;;;;6.55;2.97;;;21.20;99.90;;;;;;5023030;28;20133;-62
2022/07/30 09:40:55;;;;;;;7.35;3.25;;;21.30;99.90;;;;;;5034282;28;20049;-63
2022/07/30 09:43:21;;;;;;;6.78;2.83;;;21.30;99.90;;;;;;5033811;28;20072;-62
2022/07/30 09:45:56;;;;;;;5.70;3.38;;;21.30;99.90;;;;;;5042431;28;20041;-62
2022/07/30 09:48:26;;;;;;;7.70;3.90;;;21.20;99.90;;;;;;5016120;28;20045;-62
2022/07/30 09:50:53;;;;;;;6.97;3.55;;;21.00;99.90;;;;;;5029601;28;20033;-63
2022/07/30 09:53:21;;;;;;;8.70;3.70;;;21.10;99.90;;;;;;5030672;28;20119;-62
2022/07/30 09:55:48;;;;;;;8.60;3.50;;;21.10;99.90;;;;;;5031282;28;20053;-63
2022/07/30 09:58:13;;;;;;;6.95;3.63;;;21.10;99.90;;;;;;5019807;28;20453;-62
2022/07/30 10:00:40;;;;;;;10.77;2.90;;;21.10;99.90;;;;;;5033314;28;20076;-62
2022/07/30 10:03:24;;;;;;;9.00;3.28;;;21.10;99.90;;;;;;5034300;28;20080;-63
2022/07/30 10:05:58;;;;;;;9.07;3.50;;;21.10;99.90;;;;;;5047915;28;20119;-63
2022/07/30 10:08:50;;;;;;;6.13;3.33;;;21.00;99.90;;;;;;5020046;28;20484;-63
2022/07/30 10:11:19;;;;;;;7.43;3.10;;;21.10;99.90;;;;;;5048464;28;20059;-63
2022/07/30 10:13:47;;;;;;;6.25;3.25;;;21.30;99.90;;;;;;5036861;28;20500;-63
2022/07/30 10:16:13;;;;;;;8.45;3.55;;;21.20;99.90;;;;;;5032177;28;20085;-64
2022/07/30 10:18:41;;;;;;;11.82;3.15;;;21.00;99.90;;;;;;5038918;28;20087;-62
2022/07/30 10:21:08;;;;;;;9.98;2.72;;;21.20;99.90;;;;;;5045331;28;20048;-62
2022/07/30 10:23:34;;;;;;;7.72;2.90;;;21.30;99.90;;;;;;5034592;28;20034;-63
2022/07/30 10:26:01;;;;;;;6.00;2.85;;;21.40;99.90;;;;;;5038988;28;20057;-62
2022/07/30 10:28:29;;;;;;;6.82;3.05;;;21.30;99.90;;;;;;5017189;28;20172;-62
2022/07/30 10:30:56;;;;;;;7.25;2.75;;;21.20;99.90;;;;;;5048309;28;20089;-62
2022/07/30 10:33:26;;;;;;;8.18;3.47;;;21.30;99.90;;;;;;5035751;28;20091;-63
2022/07/30 10:35:52;;;;;;;9.13;2.63;;;21.20;99.90;;;;;;5031053;28;20045;-63
2022/07/30 10:38:22;;;;;;;9.30;3.15;;;21.50;99.90;;;;;;5029225;28;20057;-63
2022/07/30 10:41:16;;;;;;;9.60;3.33;;;21.60;99.90;;;;;;5035251;28;20065;-62
2022/07/30 10:44:02;;;;;;;8.35;3.08;;;21.50;99.90;;;;;;5037817;28;20505;-63
2022/07/30 10:46:46;;;;;;;5.93;3.25;;;21.60;99.90;;;;;;5039448;28;20644;-63
2022/07/30 10:49:15;;;;;;;7.93;3.05;;;21.50;99.90;;;;;;5030916;28;20390;-63
2022/07/30 10:51:45;;;;;;;7.25;2.92;;;21.50;99.90;;;;;;5035343;28;20393;-62
2022/07/30 10:54:32;;;;;;;5.93;2.65;;;21.50;99.90;;;;;;5031429;28;20049;-63
2022/07/30 10:57:14;;;;;;;8.25;2.83;;;21.70;99.90;;;;;;5021841;28;20057;-62
2022/07/30 10:59:56;;;;;;;6.15;3.20;;;21.70;99.90;;;;;;5035555;28;20080;-62
2022/07/30 11:02:23;;;;;;;7.15;2.90;;;21.60;99.90;;;;;;5034156;28;20559;-62
2022/07/30 11:04:49;;;;;;;8.13;2.78;;;21.80;99.90;;;;;;5037787;28;20054;-62
2022/07/30 11:07:20;;;;;;;7.40;2.90;;;21.80;99.90;;;;;;5018099;28;20044;-62
2022/07/30 11:09:48;;;;;;;6.40;2.30;;;21.60;99.90;;;;;;5031292;28;20614;-63
2022/07/30 11:12:13;;;;;;;6.70;3.17;;;21.60;99.90;;;;;;5037701;28;20053;-63
2022/07/30 11:14:45;;;;;;;5.35;2.33;;;21.60;99.90;;;;;;5038565;28;20040;-61
2022/07/30 11:17:17;;;;;;;5.57;2.70;;;21.90;99.90;;;;;;5034970;28;20424;-62
2022/07/30 11:20:13;;;;;;;4.43;1.95;;;21.60;99.90;;;;;;5037847;28;20053;-63
2022/07/30 11:22:40;;;;;;;5.18;1.95;;;21.70;99.90;;;;;;5031661;28;20069;-63
2022/07/30 11:25:29;;;;;;;6.43;2.05;;;21.90;99.90;;;;;;5035683;28;20045;-63
2022/07/30 11:27:56;;;;;;;5.32;2.70;;;22.00;99.90;;;;;;5022263;28;20299;-62
2022/07/30 11:30:22;;;;;;;8.13;2.30;;;21.90;99.90;;;;;;5042932;28;20040;-62
2022/07/30 11:33:16;;;;;;;8.35;2.80;;;22.10;99.90;;;;;;5051041;28;20385;-62
2022/07/30 11:35:42;;;;;;;7.35;2.20;;;22.30;99.90;;;;;;5033142;28;20144;-63
2022/07/30 11:38:17;;;;;;;7.93;2.35;;;22.40;99.90;;;;;;5035507;28;20116;-63
2022/07/30 11:40:47;;;;;;;7.47;2.17;;;22.60;99.90;;;;;;5051331;28;20065;-64
2022/07/30 11:43:28;;;;;;;6.70;2.05;;;22.50;99.90;;;;;;5041681;28;20509;-62
2022/07/30 11:46:08;;;;;;;5.85;2.47;;;22.60;99.90;;;;;;5044374;28;20418;-63
2022/07/30 11:48:36;;;;;;;8.95;2.55;;;22.40;99.90;;;;;;5040406;28;20055;-63
2022/07/30 11:51:02;;;;;;;4.97;1.90;;;22.50;99.90;;;;;;5046769;28;20046;-63
2022/07/30 11:53:27;;;;;;;3.83;1.70;;;22.40;99.90;;;;;;5040865;28;20049;-63
2022/07/30 11:55:59;;;;;;;5.93;2.55;;;22.60;99.90;;;;;;5050548;28;20045;-63
2022/07/30 11:58:30;;;;;;;7.47;2.50;;;22.60;99.90;;;;;;5024345;28;20051;-61
2022/07/30 12:00:59;;;;;;;5.35;2.03;;;22.60;99.90;;;;;;5030391;28;20041;-62
2022/07/30 12:03:25;;;;;;;4.88;2.20;;;22.50;99.90;;;;;;5029681;28;20048;-62
2022/07/30 12:05:52;;;;;;;3.75;2.03;;;22.40;99.90;;;;;;5044712;28;20085;-62
2022/07/30 12:08:18;;;;;;;5.85;2.40;;;22.40;99.90;;;;;;5013460;28;20057;-62
2022/07/30 12:10:55;;;;;;;6.65;2.20;;;22.10;99.90;;;;;;5047885;28;20408;-63
2022/07/30 12:13:20;;;;;;;6.43;2.20;;;22.10;99.90;;;;;;5031355;28;20091;-63
2022/07/30 12:15:47;;;;;;;6.28;2.35;;;22.40;99.90;;;;;;5046665;28;20053;-62
2022/07/30 12:18:22;;;;;;;4.93;2.60;;;22.80;99.90;;;;;;5025944;28;20033;-62
2022/07/30 12:21:02;;;;;;;4.22;2.58;;;22.50;99.90;;;;;;5039219;28;20075;-62
2022/07/30 12:23:29;;;;;;;6.07;2.72;;;22.60;99.90;;;;;;5034618;28;20045;-59
2022/07/30 12:25:55;;;;;;;6.65;2.10;;;22.60;99.90;;;;;;5040252;28;20056;-63
2022/07/30 12:28:29;;;;;;;3.65;1.92;;;22.40;99.90;;;;;;5020231;28;20041;-63
2022/07/30 12:30:56;;;;;;;4.95;1.90;;;22.60;99.90;;;;;;5055610;28;20496;-62
2022/07/30 12:33:22;;;;;;;5.57;2.35;;;22.50;99.90;;;;;;5036286;28;20523;-61
2022/07/30 12:35:53;;;;;;;6.90;2.05;;;22.40;99.90;;;;;;5039248;28;20041;-61
2022/07/30 12:38:21;;;;;;;6.97;1.73;;;22.30;99.90;;;;;;5021778;28;20060;-62
2022/07/30 12:40:59;;;;;;;8.90;1.95;;;22.30;99.90;;;;;;5049471;28;20061;-62
2022/07/30 12:43:44;;;;;;;7.00;2.35;;;22.40;99.90;;;;;;5040155;28;20046;-62
2022/07/30 12:46:12;;;;;;;3.90;1.80;;;22.40;99.90;;;;;;5040172;28;20148;-64